Time;durP1;ratioP1;P1;durP2;ratioP2;P2;SDS_P1;SDS_P2;PMS_P1;PMS_P2;Temp;Humidity;BMP_temperature;BMP_pressure;BME280_temperature;BME280_humidity;BME280_pressure;Samples;Min_cycle;Max_cycle;Signal;HPM_P1;HPM_P2
2021/03/31 00:00:37;;;;;;;15.63;8.05;;;;;;;10.19;51.44;96751.22;5031227;28;20057;-55
2021/03/31 00:03:12;;;;;;;13.73;8.05;;;;;;;10.18;51.51;96747.72;5012209;28;20053;-55
2021/03/31 00:05:39;;;;;;;15.32;8.32;;;;;;;10.25;50.82;96742.66;5027734;28;20103;-56
2021/03/31 00:08:06;;;;;;;14.02;8.10;;;;;;;10.19;50.95;96743.09;5030424;28;20064;-58
2021/03/31 00:10:39;;;;;;;14.20;8.13;;;;;;;9.50;53.97;96740.72;5013182;28;20037;-57
2021/03/31 00:13:06;;;;;;;14.10;7.75;;;;;;;9.24;55.02;96740.50;5030914;28;20099;-57
2021/03/31 00:15:33;;;;;;;12.63;8.05;;;;;;;9.30;55.23;96736.59;5031056;28;20092;-55
2021/03/31 00:18:21;;;;;;;14.20;7.40;;;;;;;9.34;55.56;96730.25;5030123;28;20120;-57
2021/03/31 00:20:49;;;;;;;16.35;8.40;;;;;;;9.33;55.42;96734.06;5031161;28;20046;-57
2021/03/31 00:23:17;;;;;;;11.20;7.28;;;;;;;9.27;56.01;96729.88;5030785;28;20049;-57
2021/03/31 00:25:44;;;;;;;11.88;7.28;;;;;;;9.69;54.19;96727.06;5030161;28;20049;-54
2021/03/31 00:28:12;;;;;;;18.55;8.63;;;;;;;9.93;52.79;96724.81;5029935;28;20577;-58
2021/03/31 00:30:39;;;;;;;14.07;8.30;;;;;;;9.76;53.20;96716.59;5030813;28;20060;-57
2021/03/31 00:33:07;;;;;;;14.40;8.35;;;;;;;9.51;54.29;96724.19;5030885;28;20080;-54
2021/03/31 00:35:34;;;;;;;13.43;8.02;;;;;;;9.43;54.64;96722.22;5012842;28;20045;-55
2021/03/31 00:38:06;;;;;;;11.77;7.53;;;;;;;9.33;55.08;96722.47;5029755;28;20053;-58
2021/03/31 00:40:39;;;;;;;15.07;8.35;;;;;;;9.20;55.75;96717.91;5030704;28;20049;-57
2021/03/31 00:43:06;;;;;;;15.90;8.20;;;;;;;9.29;55.40;96721.47;5030798;28;20207;-55
2021/03/31 00:45:33;;;;;;;13.05;7.60;;;;;;;9.57;54.28;96717.56;5030592;28;20053;-56
2021/03/31 00:48:19;;;;;;;16.15;7.63;;;;;;;9.41;54.97;96718.25;5029411;28;20120;-56
2021/03/31 00:50:48;;;;;;;14.45;7.82;;;;;;;9.41;55.06;96719.03;5030291;28;20068;-57
2021/03/31 00:53:31;;;;;;;13.50;8.10;;;;;;;9.53;54.73;96713.91;5030634;28;20117;-59
2021/03/31 00:55:58;;;;;;;13.60;8.02;;;;;;;9.40;54.19;96706.63;5030351;28;20063;-53
2021/03/31 00:58:25;;;;;;;15.32;7.45;;;;;;;9.32;55.04;96710.84;5030006;28;20061;-57
2021/03/31 01:00:52;;;;;;;14.98;7.97;;;;;;;9.18;55.67;96706.59;5032322;28;20056;-53
2021/03/31 01:03:18;;;;;;;13.73;8.13;;;;;;;9.19;55.67;96708.19;5044327;28;20054;-56
2021/03/31 01:05:45;;;;;;;13.98;8.20;;;;;;;9.31;55.21;96705.75;5030372;28;20054;-53
2021/03/31 01:08:12;;;;;;;16.17;8.38;;;;;;;9.28;55.33;96704.47;5029643;28;20061;-55
2021/03/31 01:10:48;;;;;;;18.70;7.70;;;;;;;9.04;56.08;96709.34;5030303;28;20053;-55
2021/03/31 01:13:37;;;;;;;11.68;7.80;;;;;;;8.91;56.84;96702.84;5030436;28;20407;-58
2021/03/31 01:16:13;;;;;;;13.60;7.40;;;;;;;8.93;57.31;96703.34;5030287;28;20173;-57
2021/03/31 01:19:06;;;;;;;13.95;8.10;;;;;;;8.92;56.97;96695.56;5029704;28;20115;-56
2021/03/31 01:21:51;;;;;;;;;;;;;;;8.60;58.70;96695.38;5030786;28;20049;-58
2021/03/31 01:24:36;;;;;;;14.95;7.07;;;;;;;8.77;57.76;96696.66;5030536;28;19928;-56
2021/03/31 01:27:17;;;;;;;13.43;8.13;;;;;;;8.58;58.60;96691.38;5027759;28;20665;-57
2021/03/31 01:29:51;;;;;;;18.35;7.18;;;;;;;8.67;58.34;96694.97;5030147;28;20123;-55
2021/03/31 01:32:33;;;;;;;16.17;7.93;;;;;;;8.79;57.81;96697.97;5030056;28;20049;-53
2021/03/31 01:35:15;;;;;;;15.65;7.82;;;;;;;8.79;57.71;96695.28;5030128;28;20057;-56
2021/03/31 01:38:01;;;;;;;13.80;7.57;;;;;;;9.02;56.78;96698.81;5033645;28;20049;-54
2021/03/31 01:40:29;;;;;;;11.55;7.38;;;;;;;8.93;56.72;96695.25;5033854;28;20079;-58
2021/03/31 01:43:06;;;;;;;13.57;7.82;;;;;;;8.93;56.92;96691.75;5033692;28;20061;-57
2021/03/31 01:45:34;;;;;;;13.95;7.63;;;;;;;8.79;57.27;96691.78;5034385;28;20115;-56
2021/03/31 01:48:11;;;;;;;13.13;7.35;;;;;;;8.72;58.01;96691.38;5032965;28;20083;-57
2021/03/31 01:50:39;;;;;;;12.07;7.07;;;;;;;8.83;57.38;96690.84;5033754;28;20136;-58
2021/03/31 01:53:06;;;;;;;11.07;6.70;;;;;;;8.71;57.76;96692.47;5033546;28;20064;-57
2021/03/31 01:55:34;;;;;;;11.98;7.43;;;;;;;8.57;58.50;96690.59;5032010;28;20056;-56
2021/03/31 01:58:04;;;;;;;12.25;6.30;;;;;;;8.52;58.31;96695.31;5032364;28;20053;-57
2021/03/31 02:00:33;;;;;;;13.35;6.25;;;;;;;8.69;57.99;96692.78;5015754;28;20042;-56
2021/03/31 02:03:00;;;;;;;13.52;6.80;;;;;;;8.56;58.38;96683.59;5053093;28;20079;-58
2021/03/31 02:05:29;;;;;;;10.27;6.72;;;;;;;8.62;58.25;96684.31;5034530;28;20088;-55
2021/03/31 02:07:58;;;;;;;13.45;6.45;;;;;;;8.29;59.56;96684.38;5015866;28;20447;-57
2021/03/31 02:10:26;;;;;;;11.30;6.00;;;;;;;8.29;59.37;96678.19;5033717;28;20061;-58
2021/03/31 02:12:55;;;;;;;9.18;5.63;;;;;;;8.49;58.80;96687.81;5033509;28;20051;-55
2021/03/31 02:15:26;;;;;;;12.13;6.50;;;;;;;8.70;58.06;96688.19;5040974;28;20498;-57
2021/03/31 02:17:56;;;;;;;11.13;6.20;;;;;;;8.72;57.72;96686.78;5052571;28;20144;-56
2021/03/31 02:20:24;;;;;;;11.00;6.18;;;;;;;8.84;57.32;96688.97;5053261;28;20075;-56
2021/03/31 02:22:51;;;;;;;9.02;6.00;;;;;;;8.63;58.10;96683.19;5053417;28;20061;-57
2021/03/31 02:25:20;;;;;;;12.77;6.30;;;;;;;8.49;58.47;96677.03;5041015;28;20045;-55
2021/03/31 02:27:47;;;;;;;14.23;6.43;;;;;;;8.48;58.71;96670.00;5032964;28;20060;-57
2021/03/31 02:30:19;;;;;;;10.00;6.00;;;;;;;8.68;57.86;96684.97;5033198;28;20511;-53
2021/03/31 02:32:49;;;;;;;11.18;6.40;;;;;;;8.54;57.99;96668.81;5033269;28;20055;-55
2021/03/31 02:35:19;;;;;;;12.57;6.45;;;;;;;8.40;58.71;96671.50;5033283;28;20053;-55
2021/03/31 02:37:47;;;;;;;13.43;6.68;;;;;;;8.43;58.64;96673.63;5032752;28;20461;-56
2021/03/31 02:40:14;;;;;;;14.40;6.47;;;;;;;8.46;58.42;96672.22;5033283;28;20076;-57
2021/03/31 02:42:43;;;;;;;13.85;6.93;;;;;;;8.35;58.92;96671.56;5033127;28;20111;-57
2021/03/31 02:45:14;;;;;;;14.23;6.63;;;;;;;8.27;59.30;96669.59;5032945;28;20076;-56
2021/03/31 02:47:41;;;;;;;16.85;7.28;;;;;;;8.29;59.05;96672.78;5031674;28;20136;-57
2021/03/31 02:50:12;;;;;;;10.35;6.25;;;;;;;8.03;59.96;96673.25;5033100;28;20054;-56
2021/03/31 02:52:42;;;;;;;11.18;6.15;;;;;;;8.07;59.96;96674.25;5032815;28;20056;-53
2021/03/31 02:55:12;;;;;;;13.02;6.65;;;;;;;8.19;59.44;96671.88;5032852;28;20551;-57
2021/03/31 02:57:39;;;;;;;12.82;6.43;;;;;;;8.20;59.12;96665.38;5014595;28;20077;-58
2021/03/31 03:00:09;;;;;;;15.25;6.50;;;;;;;8.10;59.58;96664.78;5032642;28;20116;-59
2021/03/31 03:02:37;;;;;;;12.05;7.00;;;;;;;7.78;61.02;96660.25;5032529;28;20050;-57
2021/03/31 03:05:07;;;;;;;15.30;6.60;;;;;;;8.08;59.96;96659.69;5032639;28;20076;-57
2021/03/31 03:07:35;;;;;;;15.77;6.90;;;;;;;8.01;59.68;96656.59;5032320;28;20057;-59
2021/03/31 03:10:04;;;;;;;16.08;6.70;;;;;;;7.91;60.12;96656.78;5032474;28;20053;-59
2021/03/31 03:12:32;;;;;;;16.15;6.55;;;;;;;7.77;60.91;96653.25;5032353;28;20502;-59
2021/03/31 03:15:00;;;;;;;12.05;6.82;;;;;;;7.94;60.18;96666.97;5032391;28;20494;-57
2021/03/31 03:17:28;;;;;;;10.88;6.20;;;;;;;7.67;61.12;96651.50;5031936;28;20049;-56
2021/03/31 03:19:54;;;;;;;11.82;6.43;;;;;;;7.80;60.59;96650.78;5014551;28;20056;-58
2021/03/31 03:22:22;;;;;;;13.80;6.10;;;;;;;7.82;60.44;96658.53;5032190;28;20050;-59
2021/03/31 03:24:50;;;;;;;9.13;5.60;;;;;;;7.45;61.82;96660.25;5032099;28;20080;-57
2021/03/31 03:27:18;;;;;;;11.43;6.65;;;;;;;7.62;61.28;96651.63;5032075;28;20136;-56
2021/03/31 03:29:47;;;;;;;10.55;5.82;;;;;;;7.53;61.75;96659.56;5031947;28;20418;-58
2021/03/31 03:32:15;;;;;;;12.55;6.43;;;;;;;7.63;61.21;96650.50;5031817;28;20178;-57
2021/03/31 03:34:43;;;;;;;11.48;6.13;;;;;;;7.75;60.65;96660.84;5031964;28;20144;-59
2021/03/31 03:37:10;;;;;;;8.38;5.70;;;;;;;7.77;60.36;96659.44;5031443;28;20099;-58
2021/03/31 03:39:37;;;;;;;11.52;6.13;;;;;;;7.42;61.85;96644.69;5014219;28;20426;-56
2021/03/31 03:42:05;;;;;;;10.48;6.28;;;;;;;7.47;61.76;96658.03;5030719;28;20061;-57
2021/03/31 03:44:32;;;;;;;14.40;5.78;;;;;;;7.62;61.21;96655.09;5032034;28;20084;-58
2021/03/31 03:47:00;;;;;;;10.85;6.18;;;;;;;7.57;61.27;96651.69;5062772;22;20145;-51
2021/03/31 03:49:26;;;;;;;9.85;5.93;;;;;;;7.51;61.29;96642.91;5090906;28;20055;-52
2021/03/31 03:51:53;;;;;;;17.48;6.10;;;;;;;7.58;61.12;96654.09;5091986;28;20491;-51
2021/03/31 03:54:20;;;;;;;11.35;5.68;;;;;;;7.47;61.65;96650.78;5092113;28;20071;-50
2021/03/31 03:56:50;;;;;;;11.93;5.93;;;;;;;7.23;62.74;96653.56;5084400;28;20068;-50
2021/03/31 03:59:17;;;;;;;11.40;5.63;;;;;;;7.17;63.25;96643.97;5071471;28;20072;-52
2021/03/31 04:01:44;;;;;;;13.10;5.78;;;;;;;7.25;62.02;96640.63;5071837;28;20041;-50
2021/03/31 04:04:11;;;;;;;11.07;5.18;;;;;;;7.40;61.55;96647.66;5071668;28;20052;-49
2021/03/31 04:06:38;;;;;;;9.40;5.03;;;;;;;7.53;61.00;96646.09;5071162;28;20048;-51
2021/03/31 04:09:05;;;;;;;12.88;4.75;;;;;;;7.38;61.39;96649.06;5070763;28;20079;-55
2021/03/31 04:11:35;;;;;;;13.20;5.25;;;;;;;7.47;60.86;96644.59;5071568;28;20068;-50
2021/03/31 04:14:03;;;;;;;14.60;5.72;;;;;;;7.58;60.44;96648.72;5071623;28;20076;-51
2021/03/31 04:16:31;;;;;;;12.43;5.30;;;;;;;7.60;60.22;96645.72;5070926;28;20051;-50
2021/03/31 04:19:06;;;;;;;14.50;5.38;;;;;;;7.65;60.20;96653.72;5070860;28;20052;-51
2021/03/31 04:21:35;;;;;;;16.10;5.35;;;;;;;7.54;60.47;96642.34;5071463;28;20052;-49
2021/03/31 04:24:02;;;;;;;10.80;5.00;;;;;;;7.43;60.48;96640.88;5069712;28;20055;-50
2021/03/31 04:26:31;;;;;;;19.05;6.20;;;;;;;7.29;61.10;96645.44;5071223;28;20451;-54
2021/03/31 04:28:58;;;;;;;14.43;5.28;;;;;;;7.20;61.40;96638.00;5070962;28;20052;-52
2021/03/31 04:31:28;;;;;;;12.80;4.95;;;;;;;7.18;61.69;96647.47;5071297;28;20048;-51
2021/03/31 04:33:57;;;;;;;15.85;4.97;;;;;;;7.27;61.19;96640.31;5071406;28;20139;-49
2021/03/31 04:36:23;;;;;;;17.83;5.80;;;;;;;7.26;60.85;96636.84;5071412;28;20048;-51
2021/03/31 04:38:51;;;;;;;13.82;5.82;;;;;;;7.19;61.36;96638.31;5071097;28;20048;-52
2021/03/31 04:41:17;;;;;;;12.63;5.55;;;;;;;7.12;61.58;96649.44;5071345;28;20056;-49
2021/03/31 04:43:44;;;;;;;13.57;5.82;;;;;;;7.07;61.79;96649.50;5071079;28;20048;-55
2021/03/31 04:46:10;;;;;;;12.07;4.68;;;;;;;7.09;61.68;96641.97;5071057;28;20050;-51
2021/03/31 04:48:38;;;;;;;10.90;4.60;;;;;;;7.29;60.67;96634.66;5070264;28;20048;-49
2021/03/31 04:51:06;;;;;;;13.80;4.85;;;;;;;7.13;61.31;96642.19;5070877;28;20090;-50
2021/03/31 04:53:34;;;;;;;11.38;5.22;;;;;;;7.32;60.75;96634.09;5070753;28;20059;-53
2021/03/31 04:56:02;;;;;;;17.02;6.15;;;;;;;7.31;60.52;96635.16;5071167;28;20336;-50
2021/03/31 04:58:28;;;;;;;16.13;5.25;;;;;;;7.25;60.79;96642.53;5070351;28;20084;-51
2021/03/31 05:00:56;;;;;;;15.88;4.57;;;;;;;7.21;61.02;96642.31;5073414;28;20048;-51
2021/03/31 05:03:23;;;;;;;9.82;4.70;;;;;;;7.26;60.83;96642.22;5091322;28;20443;-50
2021/03/31 05:05:49;;;;;;;11.50;4.88;;;;;;;7.46;59.82;96645.69;5091438;28;20497;-49
2021/03/31 05:08:15;;;;;;;11.75;4.15;;;;;;;7.49;59.36;96645.91;5079985;28;20421;-52
2021/03/31 05:10:42;;;;;;;13.07;4.00;;;;;;;7.47;59.12;96648.09;5072825;28;20052;-52
2021/03/31 05:13:08;;;;;;;12.60;4.88;;;;;;;7.22;60.26;96635.84;5075126;28;20056;-49
2021/03/31 05:15:36;;;;;;;17.42;5.05;;;;;;;7.16;61.06;96647.78;5075156;28;20059;-49
2021/03/31 05:18:03;;;;;;;15.27;4.78;;;;;;;7.29;60.42;96645.44;5081701;28;20147;-55
2021/03/31 05:20:29;;;;;;;16.92;5.00;;;;;;;7.33;60.35;96644.53;5082701;28;20040;-52
2021/03/31 05:22:56;;;;;;;12.07;5.13;;;;;;;7.57;59.51;96647.13;5074934;28;20045;-52
2021/03/31 05:25:22;;;;;;;13.32;5.07;;;;;;;7.48;59.67;96643.50;5074361;28;20048;-53
2021/03/31 05:27:54;;;;;;;18.58;5.30;;;;;;;7.41;59.69;96638.50;5081712;28;20048;-51
2021/03/31 05:30:21;;;;;;;14.40;4.97;;;;;;;7.58;59.12;96642.53;5095045;28;20105;-50
2021/03/31 05:32:47;;;;;;;11.55;4.30;;;;;;;7.42;59.52;96636.59;5088219;28;20041;-50
2021/03/31 05:35:14;;;;;;;12.70;3.95;;;;;;;7.39;58.97;96642.56;5085015;28;20061;-52
2021/03/31 05:37:41;;;;;;;11.50;4.22;;;;;;;7.33;60.88;96641.06;5086589;28;20426;-53
2021/03/31 05:40:09;;;;;;;10.50;3.83;;;;;;;7.59;58.34;96636.84;5074283;28;20058;-50
2021/03/31 05:42:37;;;;;;;9.30;4.30;;;;;;;7.81;57.98;96646.19;5074950;28;20044;-53
2021/03/31 05:45:09;;;;;;;11.52;3.50;;;;;;;7.83;57.54;96647.50;5056352;28;20048;-53
2021/03/31 05:47:42;;;;;;;11.60;4.00;;;;;;;7.94;57.46;96653.50;5074386;28;20048;-53
2021/03/31 05:50:14;;;;;;;10.20;4.00;;;;;;;7.98;57.16;96646.41;5074726;28;20063;-52
2021/03/31 05:52:43;;;;;;;14.95;4.10;;;;;;;8.17;57.28;96649.81;5074310;28;20048;-52
2021/03/31 05:55:14;;;;;;;14.50;5.40;;;;;;;8.30;56.93;96647.44;5074674;28;20512;-54
2021/03/31 05:57:42;;;;;;;11.55;3.83;;;;;;;8.52;56.80;96644.06;5056176;28;20117;-54
2021/03/31 06:00:18;;;;;;;7.90;3.45;;;;;;;8.80;54.41;96644.78;5056677;28;20044;-52
2021/03/31 06:02:46;;;;;;;11.43;4.18;;;;;;;8.69;55.41;96640.72;5074526;28;20052;-54
2021/03/31 06:05:14;;;;;;;10.00;4.03;;;;;;;8.83;54.62;96641.50;5074377;28;20045;-50
2021/03/31 06:07:46;;;;;;;15.40;3.72;;;;;;;8.84;54.47;96640.41;5073901;28;20044;-52
2021/03/31 06:10:20;;;;;;;13.20;3.97;;;;;;;8.93;54.42;96633.16;5074375;28;20053;-51
2021/03/31 06:12:54;;;;;;;13.43;3.38;;;;;;;8.99;53.62;96631.94;5074527;28;20048;-50
2021/03/31 06:15:37;;;;;;;15.75;4.00;;;;;;;9.16;53.13;96634.00;5074552;28;20057;-51
2021/03/31 06:18:07;;;;;;;;;;;;;;;9.20;52.09;96635.00;5074804;28;20478;-51
2021/03/31 06:20:42;;;;;;;9.90;3.40;;;;;;;9.23;51.24;96633.56;5080835;28;19924;-54
2021/03/31 06:23:28;;;;;;;9.30;3.10;;;;;;;9.10;49.76;96630.63;5083316;28;20144;-51
2021/03/31 06:25:58;;;;;;;8.13;2.63;;;;;;;9.25;50.05;96634.88;5084403;28;20401;-53
2021/03/31 06:28:36;;;;;;;7.93;3.55;;;;;;;9.51;49.43;96631.56;5077215;28;20501;-53
2021/03/31 06:31:28;;;;;;;8.65;3.20;;;;;;;9.65;49.09;96628.78;5083330;28;20050;-55
2021/03/31 06:33:56;;;;;;;6.05;2.80;;;;;;;9.90;48.61;96624.63;5072715;28;20044;-53
2021/03/31 06:36:33;;;;;;;5.47;2.80;;;;;;;10.03;48.24;96621.81;5073904;28;20518;-51
2021/03/31 06:39:14;;;;;;;15.30;3.03;;;;;;;10.02;48.14;96620.25;5086343;28;20059;-53
2021/03/31 06:41:53;;;;;;;12.45;3.08;;;;;;;10.05;47.59;96624.22;5079743;28;20515;-51
2021/03/31 06:44:36;;;;;;;8.77;3.00;;;;;;;10.57;46.63;96618.22;5092163;28;20163;-52
2021/03/31 06:49:50;;;;;;;8.23;3.40;;;;;;;10.21;46.32;96621.91;5073563;28;20114;-53
2021/03/31 06:52:17;;;;;;;7.03;2.88;;;;;;;10.17;45.92;96621.75;5088647;28;20076;-52
2021/03/31 06:54:48;;;;;;;9.98;2.60;;;;;;;10.36;45.47;96629.63;5084640;28;20047;-54
2021/03/31 06:57:43;;;;;;;6.60;2.55;;;;;;;10.35;45.02;96630.72;5078924;28;20055;-50
2021/03/31 07:00:11;;;;;;;5.80;2.17;;;;;;;10.44;44.79;96626.16;5081251;28;20060;-54
2021/03/31 07:02:39;;;;;;;5.80;2.35;;;;;;;10.60;44.70;96628.44;5089559;28;20059;-53
2021/03/31 07:05:07;;;;;;;7.68;2.55;;;;;;;10.69;45.15;96629.22;5073233;28;20094;-52
2021/03/31 07:07:37;;;;;;;5.97;2.45;;;;;;;10.81;44.43;96628.63;5088779;28;20048;-54
2021/03/31 07:10:15;;;;;;;6.80;3.47;;;;;;;10.80;44.32;96627.03;5084440;28;20910;-51
2021/03/31 07:12:50;;;;;;;6.68;2.30;;;;;;;10.94;44.48;96627.66;5091131;28;20048;-53
2021/03/31 07:15:24;;;;;;;6.38;2.30;;;;;;;11.05;43.72;96623.56;5064158;28;20053;-52
2021/03/31 07:17:53;;;;;;;10.85;2.80;;;;;;;11.18;44.13;96621.81;5049860;28;20120;-54
2021/03/31 07:20:26;;;;;;;13.02;3.17;;;;;;;11.25;43.12;96621.31;5084013;28;20059;-51
2021/03/31 07:23:03;;;;;;;8.43;2.85;;;;;;;11.40;43.46;96631.66;5056385;28;20047;-54
2021/03/31 07:25:30;;;;;;;7.95;2.88;;;;;;;11.61;42.33;96629.09;5071046;28;20052;-55
2021/03/31 07:27:58;;;;;;;8.05;2.80;;;;;;;11.45;42.79;96624.16;5074759;28;20048;-54
2021/03/31 07:30:27;;;;;;;8.80;2.65;;;;;;;11.35;43.23;96626.41;5054576;28;20052;-53
2021/03/31 07:33:18;;;;;;;10.68;2.67;;;;;;;11.39;42.78;96625.44;5072537;28;20094;-51
2021/03/31 07:35:46;;;;;;;6.60;2.78;;;;;;;11.35;42.98;96627.22;5082265;28;20440;-53
2021/03/31 07:38:16;;;;;;;9.43;3.25;;;;;;;11.40;43.34;96628.94;5085258;28;20048;-52
2021/03/31 07:40:44;;;;;;;12.85;3.05;;;;;;;11.46;43.20;96617.63;5091578;28;20055;-53
2021/03/31 07:43:38;;;;;;;7.70;3.60;;;;;;;11.69;43.13;96626.34;5093085;28;20055;-52
2021/03/31 07:46:11;;;;;;;9.70;3.30;;;;;;;11.98;42.74;96621.38;5073876;28;20086;-53
2021/03/31 07:48:39;;;;;;;11.00;4.15;;;;;;;12.15;42.58;96626.72;5092833;28;20051;-55
2021/03/31 07:51:18;;;;;;;9.75;4.50;;;;;;;12.11;42.55;96628.50;5091594;28;20382;-51
2021/03/31 07:53:49;;;;;;;9.15;4.80;;;;;;;12.32;42.33;96623.97;5083029;28;20049;-51
2021/03/31 07:56:31;;;;;;;9.55;4.03;;;;;;;12.46;42.31;96623.72;5071421;28;20048;-54
2021/03/31 07:59:08;;;;;;;11.13;4.32;;;;;;;12.80;41.70;96620.03;5089857;28;20546;-57
2021/03/31 08:01:37;;;;;;;12.95;4.10;;;;;;;12.60;42.04;96618.84;5078189;28;20051;-54
2021/03/31 08:04:06;;;;;;;11.15;3.80;;;;;;;12.64;41.37;96605.41;5089214;28;20071;-53
2021/03/31 08:06:35;;;;;;;12.27;4.30;;;;;;;12.67;41.55;96609.41;5092050;28;20101;-53
2021/03/31 08:09:06;;;;;;;14.45;4.75;;;;;;;12.98;41.11;96612.53;5090185;28;20052;-54
2021/03/31 08:11:38;;;;;;;10.20;4.20;;;;;;;13.16;40.46;96615.94;5060563;28;20041;-57
2021/03/31 08:14:10;;;;;;;10.65;4.40;;;;;;;13.14;40.24;96614.66;5088494;28;20048;-53
2021/03/31 08:16:43;;;;;;;12.32;3.72;;;;;;;12.99;40.14;96607.91;5083653;28;20052;-53
2021/03/31 08:19:25;;;;;;;9.93;3.55;;;;;;;13.10;39.83;96609.91;5086652;28;20119;-48
2021/03/31 08:21:53;;;;;;;9.45;3.90;;;;;;;13.26;40.18;96612.84;5078059;28;20452;-52
2021/03/31 08:24:41;;;;;;;9.10;3.60;;;;;;;13.39;40.08;96608.25;5073692;28;20102;-48
2021/03/31 08:27:08;;;;;;;8.23;3.88;;;;;;;13.66;40.03;96612.31;5082022;28;20048;-53
2021/03/31 08:29:35;;;;;;;8.70;3.65;;;;;;;13.66;39.27;96616.97;5072003;28;20036;-51
2021/03/31 08:32:04;;;;;;;9.32;3.85;;;;;;;13.66;39.40;96612.31;5091549;28;20036;-54
2021/03/31 08:34:31;;;;;;;8.68;3.88;;;;;;;13.76;39.92;96606.44;5091498;28;20508;-54
2021/03/31 08:37:01;;;;;;;8.95;3.70;;;;;;;13.75;39.35;96607.59;5081180;28;20057;-55
2021/03/31 08:39:28;;;;;;;9.48;4.43;;;;;;;13.76;39.47;96609.16;5089787;28;20055;-52
2021/03/31 08:41:57;;;;;;;9.93;4.55;;;;;;;13.88;39.21;96604.91;5088615;28;20047;-51
2021/03/31 08:44:30;;;;;;;9.10;3.58;;;;;;;13.94;39.70;96606.25;5086529;28;20062;-51
2021/03/31 08:47:10;;;;;;;12.88;4.10;;;;;;;14.16;39.59;96607.75;5087601;28;20131;-52
2021/03/31 08:49:42;;;;;;;8.38;4.07;;;;;;;14.22;38.72;96601.75;5086095;28;20044;-56
2021/03/31 08:52:11;;;;;;;11.15;3.70;;;;;;;14.41;38.31;96605.84;5088234;28;20052;-55
2021/03/31 08:54:48;;;;;;;8.73;3.78;;;;;;;14.56;38.04;96602.50;5087930;28;20039;-52
2021/03/31 08:57:16;;;;;;;10.00;3.92;;;;;;;14.67;37.21;96608.25;5089873;28;20056;-55
2021/03/31 08:59:46;;;;;;;9.50;3.92;;;;;;;14.55;37.32;96603.59;5086062;28;20067;-54
2021/03/31 09:02:16;;;;;;;7.28;3.63;;;;;;;14.72;36.80;96597.94;5083546;28;20040;-52
2021/03/31 09:05:00;;;;;;;8.30;3.20;;;;;;;15.01;36.69;96593.31;5085613;28;20054;-56
2021/03/31 09:07:28;;;;;;;10.73;3.40;;;;;;;15.26;36.02;96593.25;5084697;28;20053;-49
2021/03/31 09:09:55;;;;;;;9.63;3.20;;;;;;;15.06;35.20;96595.81;5065929;28;20051;-51
2021/03/31 09:12:25;;;;;;;12.18;3.08;;;;;;;14.96;34.72;96590.84;5088429;28;20481;-52
2021/03/31 09:14:54;;;;;;;7.97;2.92;;;;;;;14.97;35.40;96586.97;5089633;28;20054;-55
2021/03/31 09:17:22;;;;;;;9.23;3.30;;;;;;;15.17;35.22;96582.50;5087027;28;20059;-55
2021/03/31 09:19:53;;;;;;;12.13;3.05;;;;;;;15.24;34.20;96580.00;5085776;28;20048;-51
2021/03/31 09:22:28;;;;;;;7.65;2.50;;;;;;;15.29;33.79;96576.22;5086647;28;20093;-53
2021/03/31 09:24:58;;;;;;;6.13;2.70;;;;;;;15.52;34.26;96577.25;5084230;28;20052;-56
2021/03/31 09:27:33;;;;;;;9.48;3.22;;;;;;;15.54;33.45;96580.41;5087646;28;20430;-53
2021/03/31 09:30:04;;;;;;;9.52;2.75;;;;;;;15.71;33.13;96575.81;5087335;28;20122;-55
2021/03/31 09:32:54;;;;;;;9.65;4.18;;;;;;;15.78;34.53;96573.28;5086873;28;20127;-51
2021/03/31 09:36:16;;;;;;;15.48;4.05;;;;;;;16.01;34.13;96570.75;5065241;28;20077;-54
2021/03/31 09:38:53;;;;;;;8.43;3.53;;;;;;;15.92;33.46;96568.16;5079918;28;20084;-54
2021/03/31 09:41:21;;;;;;;12.27;3.25;;;;;;;15.93;33.46;96567.03;5081756;28;20045;-53
2021/03/31 09:43:49;;;;;;;11.40;3.92;;;;;;;16.11;33.86;96568.25;5085572;28;20088;-52
2021/03/31 09:46:22;;;;;;;11.57;4.10;;;;;;;16.30;34.00;96569.50;5083411;28;20086;-55
2021/03/31 09:48:50;;;;;;;8.65;3.75;;;;;;;16.40;32.66;96570.91;5080513;28;20052;-56
2021/03/31 09:51:18;;;;;;;11.07;3.35;;;;;;;16.47;32.74;96560.13;5085411;28;20055;-53
2021/03/31 09:53:45;;;;;;;9.95;3.25;;;;;;;16.70;32.62;96563.00;5066880;28;20091;-56
2021/03/31 09:56:13;;;;;;;14.02;4.63;;;;;;;16.81;32.62;96556.66;5066459;28;20419;-52
2021/03/31 09:58:41;;;;;;;10.90;3.90;;;;;;;16.76;32.87;96553.41;5084452;28;20485;-50
2021/03/31 10:01:12;;;;;;;8.68;3.83;;;;;;;16.89;32.43;96552.13;5084656;28;20072;-52
2021/03/31 10:03:41;;;;;;;13.48;4.25;;;;;;;17.03;32.32;96552.44;5085388;28;20056;-57
2021/03/31 10:06:24;;;;;;;9.20;3.85;;;;;;;17.00;31.88;96544.19;5078407;28;20040;-52
2021/03/31 10:08:52;;;;;;;8.88;3.78;;;;;;;17.19;31.43;96548.84;5077819;28;20036;-55
2021/03/31 10:11:38;;;;;;;8.57;3.20;;;;;;;16.75;31.55;96546.38;5093695;28;20060;-54
2021/03/31 10:14:21;;;;;;;11.90;4.03;;;;;;;17.17;31.50;96538.28;5091813;28;20048;-51
2021/03/31 10:16:49;;;;;;;13.85;4.47;;;;;;;17.22;31.16;96537.19;5078228;28;20056;-54
2021/03/31 10:19:17;;;;;;;10.68;4.63;;;;;;;17.29;31.38;96542.81;5085589;28;20108;-49
2021/03/31 10:21:46;;;;;;;10.05;3.97;;;;;;;17.18;31.45;96530.84;5085696;28;20046;-53
2021/03/31 10:24:34;;;;;;;12.32;4.35;;;;;;;17.36;31.99;96532.00;5072806;28;20052;-52
2021/03/31 10:27:07;;;;;;;11.05;4.05;;;;;;;17.47;31.31;96527.53;5090753;28;20054;-50
2021/03/31 10:29:54;;;;;;;17.75;4.40;;;;;;;17.66;31.43;96528.66;5080861;28;20059;-51
2021/03/31 10:32:40;;;;;;;12.15;4.25;;;;;;;17.84;30.75;96521.56;5075013;28;20413;-50
2021/03/31 10:35:07;;;;;;;8.85;4.63;;;;;;;17.91;30.26;96524.44;5079132;28;20160;-51
2021/03/31 10:37:39;;;;;;;7.15;3.67;;;;;;;17.79;30.36;96519.13;5068304;28;20048;-56
2021/03/31 10:48:42;;;;;;;12.18;5.80;;;;;;;18.34;30.48;96511.41;5084839;28;20484;-54
2021/03/31 10:54:08;;;;;;;11.43;4.68;;;;;;;18.49;29.08;96503.41;5080092;28;20188;-52
2021/03/31 10:56:37;;;;;;;13.82;4.53;;;;;;;18.28;29.43;96512.88;5089872;28;20497;-54
2021/03/31 10:59:05;;;;;;;11.32;4.50;;;;;;;18.42;29.81;96504.88;5072619;28;20096;-53
2021/03/31 11:01:32;;;;;;;8.15;4.63;;;;;;;18.52;29.22;96508.94;5074506;28;20059;-53
2021/03/31 11:03:58;;;;;;;11.57;4.63;;;;;;;18.85;27.92;96500.03;5072016;28;20047;-54
2021/03/31 11:06:25;;;;;;;10.63;4.10;;;;;;;18.91;28.15;96503.22;5085148;28;20098;-51
2021/03/31 11:08:52;;;;;;;10.90;4.60;;;;;;;19.08;28.07;96493.66;5077463;28;20182;-50
2021/03/31 11:11:18;;;;;;;12.77;5.05;;;;;;;19.14;26.97;96494.88;5082828;28;20052;-53
2021/03/31 11:13:45;;;;;;;14.02;5.45;;;;;;;19.17;26.82;96487.84;5090417;28;20048;-57
2021/03/31 11:16:13;;;;;;;7.90;4.13;;;;;;;19.47;26.94;96485.84;5089219;28;20098;-52
2021/03/31 11:18:57;;;;;;;9.68;4.63;;;;;;;19.81;26.51;96485.81;5082550;28;20527;-58
2021/03/31 11:26:40;;;;;;;8.07;4.40;;;;;;;20.56;25.27;96466.34;5085383;28;20056;-51
2021/03/31 11:29:07;;;;;;;7.47;4.25;;;;;;;20.62;24.30;96467.56;5087112;28;20049;-54
2021/03/31 11:31:34;;;;;;;9.75;3.90;;;;;;;20.70;24.37;96464.47;5085906;28;20048;-53
2021/03/31 11:34:00;;;;;;;6.72;3.65;;;;;;;21.03;24.34;96468.16;5062931;28;20105;-52
2021/03/31 11:36:27;;;;;;;19.60;5.35;;;;;;;21.57;24.16;96463.59;5066317;28;20134;-52
2021/03/31 11:38:54;;;;;;;12.02;5.80;;;;;;;21.81;23.73;96464.03;5084649;28;20044;-51
2021/03/31 11:41:20;;;;;;;8.90;4.30;;;;;;;22.16;22.87;96458.56;5089766;28;20523;-51
2021/03/31 11:43:49;;;;;;;11.55;5.05;;;;;;;21.99;23.63;96453.78;5082705;28;20501;-50
2021/03/31 11:46:16;;;;;;;10.80;5.20;;;;;;;22.73;23.92;96454.09;5083407;28;20044;-55
2021/03/31 11:48:43;;;;;;;10.60;5.45;;;;;;;21.83;23.71;96454.19;5067461;28;20045;-52
2021/03/31 11:51:10;;;;;;;9.50;4.90;;;;;;;21.88;22.60;96450.28;5090726;28;20044;-54
2021/03/31 11:53:36;;;;;;;7.80;4.63;;;;;;;22.30;23.65;96449.47;5087756;28;20479;-54
2021/03/31 11:56:03;;;;;;;9.82;5.15;;;;;;;22.54;21.78;96438.78;5086139;28;20051;-51
2021/03/31 11:58:30;;;;;;;11.00;5.43;;;;;;;21.64;22.85;96443.53;5084744;28;20048;-53
2021/03/31 12:00:58;;;;;;;7.95;4.60;;;;;;;21.54;22.73;96444.31;5088014;28;20097;-54
2021/03/31 12:03:25;;;;;;;11.20;5.50;;;;;;;22.00;22.80;96438.03;5071414;28;20093;-51
2021/03/31 12:05:51;;;;;;;10.07;4.70;;;;;;;23.08;22.93;96439.41;5090847;28;20109;-54
2021/03/31 12:08:19;;;;;;;10.77;5.75;;;;;;;22.92;22.10;96441.81;5083180;28;20070;-54